sensor_id;sensor_type;location;lat;lon;timestamp;P1;durP1;ratioP1;P2;durP2;ratioP2
9264;SDS011;4669;49.594;10.958;2022-09-09T04:23:45;2.17;;;1.70;;
9264;SDS011;4669;49.594;10.958;2022-09-09T04:28:47;4.75;;;1.63;;
9264;SDS011;4669;49.594;10.958;2022-09-09T04:33:52;2.70;;;1.85;;
9264;SDS011;4669;49.594;10.958;2022-09-09T04:38:56;4.72;;;2.40;;
9264;SDS011;4669;49.594;10.958;2022-09-09T04:43:59;5.30;;;2.83;;
9264;SDS011;4669;49.594;10.958;2022-09-09T04:49:02;4.50;;;2.60;;
9264;SDS011;4669;49.594;10.958;2022-09-09T04:54:07;4.65;;;2.45;;
9264;SDS011;4669;49.594;10.958;2022-09-09T04:59:13;5.25;;;2.00;;
9264;SDS011;4669;49.594;10.958;2022-09-09T05:04:20;4.00;;;1.95;;
9264;SDS011;4669;49.594;10.958;2022-09-09T05:09:23;4.45;;;2.03;;
9264;SDS011;4669;49.594;10.958;2022-09-09T05:14:26;3.90;;;1.80;;
9264;SDS011;4669;49.594;10.958;2022-09-09T05:19:28;2.58;;;1.60;;
9264;SDS011;4669;49.594;10.958;2022-09-09T05:24:32;4.00;;;1.70;;
9264;SDS011;4669;49.594;10.958;2022-09-09T05:29:36;3.22;;;1.75;;
9264;SDS011;4669;49.594;10.958;2022-09-09T05:34:40;4.75;;;1.75;;
9264;SDS011;4669;49.594;10.958;2022-09-09T05:39:43;3.45;;;1.73;;
9264;SDS011;4669;49.594;10.958;2022-09-09T05:44:46;5.18;;;1.85;;
9264;SDS011;4669;49.594;10.958;2022-09-09T05:49:48;3.45;;;1.63;;
9264;SDS011;4669;49.594;10.958;2022-09-09T05:54:52;5.03;;;2.20;;
9264;SDS011;4669;49.594;10.958;2022-09-09T05:59:55;7.47;;;1.95;;
9264;SDS011;4669;49.594;10.958;2022-09-09T06:04:57;3.55;;;2.33;;
9264;SDS011;4669;49.594;10.958;2022-09-09T06:10:01;4.60;;;1.92;;
9264;SDS011;4669;49.594;10.958;2022-09-09T06:15:04;4.53;;;1.92;;
9264;SDS011;4669;49.594;10.958;2022-09-09T06:20:07;4.20;;;1.75;;
9264;SDS011;4669;49.594;10.958;2022-09-09T06:25:11;3.92;;;1.88;;
9264;SDS011;4669;49.594;10.958;2022-09-09T06:30:13;7.88;;;2.20;;
9264;SDS011;4669;49.594;10.958;2022-09-09T06:35:17;5.13;;;1.85;;
9264;SDS011;4669;49.594;10.958;2022-09-09T06:40:21;3.05;;;1.85;;
9264;SDS011;4669;49.594;10.958;2022-09-09T06:45:23;2.72;;;1.88;;
9264;SDS011;4669;49.594;10.958;2022-09-09T06:50:29;2.80;;;1.70;;
9264;SDS011;4669;49.594;10.958;2022-09-09T06:55:33;1.95;;;1.70;;
9264;SDS011;4669;49.594;10.958;2022-09-09T07:00:35;3.53;;;1.60;;
9264;SDS011;4669;49.594;10.958;2022-09-09T07:05:38;4.95;;;2.00;;
9264;SDS011;4669;49.594;10.958;2022-09-09T07:10:42;2.28;;;1.70;;
9264;SDS011;4669;49.594;10.958;2022-09-09T07:15:44;3.42;;;1.52;;
9264;SDS011;4669;49.594;10.958;2022-09-09T07:20:52;3.90;;;1.60;;
9264;SDS011;4669;49.594;10.958;2022-09-09T07:25:59;3.75;;;1.60;;
9264;SDS011;4669;49.594;10.958;2022-09-09T07:31:01;2.55;;;1.45;;
9264;SDS011;4669;49.594;10.958;2022-09-09T07:36:05;1.67;;;1.30;;
9264;SDS011;4669;49.594;10.958;2022-09-09T07:41:13;4.95;;;1.90;;
9264;SDS011;4669;49.594;10.958;2022-09-09T07:46:20;2.05;;;1.25;;
9264;SDS011;4669;49.594;10.958;2022-09-09T07:51:25;3.75;;;1.52;;
9264;SDS011;4669;49.594;10.958;2022-09-09T07:56:30;3.95;;;1.40;;
9264;SDS011;4669;49.594;10.958;2022-09-09T08:01:33;4.82;;;1.48;;
9264;SDS011;4669;49.594;10.958;2022-09-09T08:06:40;5.05;;;1.70;;
9264;SDS011;4669;49.594;10.958;2022-09-09T08:11:45;4.40;;;1.83;;
9264;SDS011;4669;49.594;10.958;2022-09-09T08:16:48;4.05;;;3.22;;
9264;SDS011;4669;49.594;10.958;2022-09-09T08:21:55;7.72;;;2.03;;
9264;SDS011;4669;49.594;10.958;2022-09-09T08:26:59;2.75;;;1.65;;
9264;SDS011;4669;49.594;10.958;2022-09-09T08:32:02;3.97;;;1.77;;
9264;SDS011;4669;49.594;10.958;2022-09-09T08:37:05;5.78;;;1.50;;
9264;SDS011;4669;49.594;10.958;2022-09-09T08:42:33;4.57;;;1.50;;
9264;SDS011;4669;49.594;10.958;2022-09-09T08:47:41;4.55;;;1.42;;
9264;SDS011;4669;49.594;10.958;2022-09-09T08:52:55;3.30;;;1.60;;
9264;SDS011;4669;49.594;10.958;2022-09-09T08:58:08;3.03;;;1.33;;
9264;SDS011;4669;49.594;10.958;2022-09-09T09:03:15;11.90;;;1.30;;
9264;SDS011;4669;49.594;10.958;2022-09-09T09:08:28;2.45;;;1.10;;
9264;SDS011;4669;49.594;10.958;2022-09-09T09:13:40;1.83;;;0.85;;
9264;SDS011;4669;49.594;10.958;2022-09-09T09:18:49;2.25;;;0.85;;
9264;SDS011;4669;49.594;10.958;2022-09-09T09:23:54;2.97;;;0.95;;
9264;SDS011;4669;49.594;10.958;2022-09-09T09:29:03;2.55;;;1.13;;
9264;SDS011;4669;49.594;10.958;2022-09-09T09:34:12;3.25;;;1.20;;
9264;SDS011;4669;49.594;10.958;2022-09-09T09:39:22;1.83;;;0.90;;
9264;SDS011;4669;49.594;10.958;2022-09-09T09:44:28;3.25;;;0.88;;
9264;SDS011;4669;49.594;10.958;2022-09-09T09:49:38;4.47;;;0.93;;
9264;SDS011;4669;49.594;10.958;2022-09-09T09:54:41;6.05;;;0.98;;
9264;SDS011;4669;49.594;10.958;2022-09-09T09:59:45;3.15;;;1.00;;
9264;SDS011;4669;49.594;10.958;2022-09-09T10:05:03;2.25;;;1.00;;
9264;SDS011;4669;49.594;10.958;2022-09-09T10:10:08;3.50;;;1.42;;
9264;SDS011;4669;49.594;10.958;2022-09-09T10:15:23;2.38;;;0.90;;
9264;SDS011;4669;49.594;10.958;2022-09-09T10:20:35;1.65;;;0.63;;
9264;SDS011;4669;49.594;10.958;2022-09-09T10:25:50;2.80;;;0.85;;
9264;SDS011;4669;49.594;10.958;2022-09-09T10:31:08;2.42;;;0.93;;
9264;SDS011;4669;49.594;10.958;2022-09-09T10:36:22;4.18;;;0.73;;
9264;SDS011;4669;49.594;10.958;2022-09-09T10:41:31;3.20;;;1.00;;
9264;SDS011;4669;49.594;10.958;2022-09-09T10:46:48;3.25;;;1.63;;
9264;SDS011;4669;49.594;10.958;2022-09-09T10:52:01;1.75;;;0.68;;
9264;SDS011;4669;49.594;10.958;2022-09-09T10:57:11;3.60;;;0.90;;
9264;SDS011;4669;49.594;10.958;2022-09-09T11:02:30;2.63;;;1.05;;
9264;SDS011;4669;49.594;10.958;2022-09-09T11:07:34;4.78;;;1.38;;
9264;SDS011;4669;49.594;10.958;2022-09-09T11:12:40;4.75;;;0.90;;
9264;SDS011;4669;49.594;10.958;2022-09-09T11:17:47;1.33;;;0.60;;
9264;SDS011;4669;49.594;10.958;2022-09-09T11:22:55;2.97;;;0.75;;
9264;SDS011;4669;49.594;10.958;2022-09-09T11:28:06;2.78;;;0.90;;
9264;SDS011;4669;49.594;10.958;2022-09-09T11:38:51;5.28;;;0.85;;
9264;SDS011;4669;49.594;10.958;2022-09-09T11:43:54;3.65;;;1.00;;
9264;SDS011;4669;49.594;10.958;2022-09-09T11:49:01;3.15;;;1.05;;
9264;SDS011;4669;49.594;10.958;2022-09-09T11:54:29;4.93;;;0.77;;
9264;SDS011;4669;49.594;10.958;2022-09-09T11:59:29;2.67;;;0.88;;
9264;SDS011;4669;49.594;10.958;2022-09-09T12:04:36;4.47;;;1.25;;
9264;SDS011;4669;49.594;10.958;2022-09-09T12:09:43;1.58;;;0.77;;
9264;SDS011;4669;49.594;10.958;2022-09-09T12:14:59;2.30;;;1.17;;
9264;SDS011;4669;49.594;10.958;2022-09-09T12:20:08;3.08;;;1.13;;
9264;SDS011;4669;49.594;10.958;2022-09-09T12:25:20;4.78;;;1.00;;
9264;SDS011;4669;49.594;10.958;2022-09-09T12:30:28;2.55;;;0.52;;
9264;SDS011;4669;49.594;10.958;2022-09-09T12:35:35;4.82;;;1.02;;
9264;SDS011;4669;49.594;10.958;2022-09-09T12:40:38;2.55;;;1.08;;
9264;SDS011;4669;49.594;10.958;2022-09-09T12:45:40;2.65;;;0.90;;
9264;SDS011;4669;49.594;10.958;2022-09-09T12:50:45;4.03;;;0.98;;
9264;SDS011;4669;49.594;10.958;2022-09-09T12:55:49;3.95;;;0.80;;
9264;SDS011;4669;49.594;10.958;2022-09-09T13:00:53;8.40;;;1.90;;
9264;SDS011;4669;49.594;10.958;2022-09-09T13:05:59;9.70;;;1.77;;
9264;SDS011;4669;49.594;10.958;2022-09-09T13:11:14;8.90;;;2.00;;
9264;SDS011;4669;49.594;10.958;2022-09-09T13:16:20;8.75;;;1.67;;
9264;SDS011;4669;49.594;10.958;2022-09-09T13:21:34;4.15;;;1.30;;
9264;SDS011;4669;49.594;10.958;2022-09-09T13:26:38;4.97;;;1.80;;
9264;SDS011;4669;49.594;10.958;2022-09-09T13:31:40;7.80;;;1.65;;
9264;SDS011;4669;49.594;10.958;2022-09-09T13:36:46;2.85;;;0.85;;
9264;SDS011;4669;49.594;10.958;2022-09-09T13:41:50;5.57;;;1.23;;
9264;SDS011;4669;49.594;10.958;2022-09-09T13:46:59;2.25;;;1.00;;
9264;SDS011;4669;49.594;10.958;2022-09-09T13:52:05;2.85;;;0.90;;
9264;SDS011;4669;49.594;10.958;2022-09-09T13:57:14;2.15;;;1.15;;
9264;SDS011;4669;49.594;10.958;2022-09-09T14:02:17;4.07;;;1.20;;
9264;SDS011;4669;49.594;10.958;2022-09-09T14:07:22;1.92;;;0.80;;
9264;SDS011;4669;49.594;10.958;2022-09-09T14:12:25;2.50;;;1.10;;
9264;SDS011;4669;49.594;10.958;2022-09-09T14:17:27;4.00;;;1.20;;
9264;SDS011;4669;49.594;10.958;2022-09-09T14:22:33;4.93;;;1.45;;
9264;SDS011;4669;49.594;10.958;2022-09-09T14:27:36;4.28;;;1.27;;
9264;SDS011;4669;49.594;10.958;2022-09-09T14:32:39;3.00;;;1.00;;
9264;SDS011;4669;49.594;10.958;2022-09-09T14:37:42;4.15;;;1.27;;
9264;SDS011;4669;49.594;10.958;2022-09-09T14:42:44;1.23;;;0.60;;
9264;SDS011;4669;49.594;10.958;2022-09-09T14:47:46;3.08;;;1.13;;
9264;SDS011;4669;49.594;10.958;2022-09-09T14:52:50;4.38;;;1.00;;
9264;SDS011;4669;49.594;10.958;2022-09-09T14:57:51;3.28;;;1.33;;
9264;SDS011;4669;49.594;10.958;2022-09-09T15:02:54;3.67;;;1.40;;
9264;SDS011;4669;49.594;10.958;2022-09-09T15:07:57;7.32;;;1.88;;
9264;SDS011;4669;49.594;10.958;2022-09-09T15:12:59;4.88;;;1.40;;
9264;SDS011;4669;49.594;10.958;2022-09-09T15:18:01;1.60;;;1.02;;
9264;SDS011;4669;49.594;10.958;2022-09-09T15:23:05;2.17;;;1.08;;
9264;SDS011;4669;49.594;10.958;2022-09-09T15:28:09;5.38;;;1.55;;
9264;SDS011;4669;49.594;10.958;2022-09-09T15:33:12;4.45;;;1.20;;
9264;SDS011;4669;49.594;10.958;2022-09-09T15:38:16;5.68;;;1.08;;
9264;SDS011;4669;49.594;10.958;2022-09-09T15:43:19;2.50;;;1.10;;
9264;SDS011;4669;49.594;10.958;2022-09-09T15:48:21;2.97;;;0.93;;
9264;SDS011;4669;49.594;10.958;2022-09-09T15:53:34;3.15;;;1.05;;
9264;SDS011;4669;49.594;10.958;2022-09-09T15:58:36;4.25;;;0.98;;
9264;SDS011;4669;49.594;10.958;2022-09-09T16:03:38;2.67;;;0.90;;
9264;SDS011;4669;49.594;10.958;2022-09-09T16:08:44;2.38;;;1.30;;
9264;SDS011;4669;49.594;10.958;2022-09-09T16:13:49;2.33;;;0.90;;
9264;SDS011;4669;49.594;10.958;2022-09-09T16:18:53;1.42;;;0.65;;
9264;SDS011;4669;49.594;10.958;2022-09-09T16:23:57;1.67;;;1.00;;
9264;SDS011;4669;49.594;10.958;2022-09-09T16:29:00;1.80;;;0.70;;
9264;SDS011;4669;49.594;10.958;2022-09-09T16:34:03;6.35;;;2.55;;
9264;SDS011;4669;49.594;10.958;2022-09-09T16:39:07;2.40;;;1.08;;
9264;SDS011;4669;49.594;10.958;2022-09-09T16:44:10;2.08;;;1.00;;
9264;SDS011;4669;49.594;10.958;2022-09-09T16:49:14;1.75;;;1.02;;
9264;SDS011;4669;49.594;10.958;2022-09-09T16:54:17;1.27;;;1.10;;
9264;SDS011;4669;49.594;10.958;2022-09-09T16:59:20;2.30;;;0.73;;
9264;SDS011;4669;49.594;10.958;2022-09-09T17:04:25;2.45;;;0.55;;
9264;SDS011;4669;49.594;10.958;2022-09-09T17:09:29;1.58;;;0.70;;
9264;SDS011;4669;49.594;10.958;2022-09-09T17:14:32;1.48;;;0.73;;
9264;SDS011;4669;49.594;10.958;2022-09-09T17:19:33;3.30;;;1.00;;
9264;SDS011;4669;49.594;10.958;2022-09-09T17:24:37;1.80;;;0.57;;
9264;SDS011;4669;49.594;10.958;2022-09-09T17:29:40;1.70;;;0.85;;
9264;SDS011;4669;49.594;10.958;2022-09-09T17:34:42;2.28;;;0.70;;
9264;SDS011;4669;49.594;10.958;2022-09-09T17:39:47;1.38;;;0.88;;
9264;SDS011;4669;49.594;10.958;2022-09-09T17:44:49;2.20;;;1.20;;
9264;SDS011;4669;49.594;10.958;2022-09-09T17:49:51;0.73;;;0.55;;
9264;SDS011;4669;49.594;10.958;2022-09-09T17:54:54;1.98;;;0.80;;
9264;SDS011;4669;49.594;10.958;2022-09-09T17:59:58;1.52;;;1.13;;
9264;SDS011;4669;49.594;10.958;2022-09-09T18:05:00;3.67;;;1.15;;
9264;SDS011;4669;49.594;10.958;2022-09-09T18:10:04;1.90;;;0.90;;
9264;SDS011;4669;49.594;10.958;2022-09-09T18:15:06;1.50;;;0.85;;
9264;SDS011;4669;49.594;10.958;2022-09-09T18:20:09;2.45;;;0.98;;
9264;SDS011;4669;49.594;10.958;2022-09-09T18:25:12;1.90;;;0.68;;
9264;SDS011;4669;49.594;10.958;2022-09-09T18:30:14;4.43;;;1.10;;
9264;SDS011;4669;49.594;10.958;2022-09-09T18:35:16;4.78;;;0.75;;
9264;SDS011;4669;49.594;10.958;2022-09-09T18:40:20;0.82;;;0.70;;
9264;SDS011;4669;49.594;10.958;2022-09-09T18:45:22;2.85;;;0.90;;
9264;SDS011;4669;49.594;10.958;2022-09-09T18:50:24;4.18;;;2.63;;
9264;SDS011;4669;49.594;10.958;2022-09-09T18:55:28;1.75;;;0.75;;
9264;SDS011;4669;49.594;10.958;2022-09-09T19:00:30;2.45;;;1.20;;
9264;SDS011;4669;49.594;10.958;2022-09-09T19:05:33;2.75;;;1.00;;
9264;SDS011;4669;49.594;10.958;2022-09-09T19:10:37;1.42;;;0.70;;
9264;SDS011;4669;49.594;10.958;2022-09-09T19:15:39;1.00;;;0.70;;
9264;SDS011;4669;49.594;10.958;2022-09-09T19:20:41;1.70;;;1.00;;
9264;SDS011;4669;49.594;10.958;2022-09-09T19:25:46;2.25;;;1.05;;
9264;SDS011;4669;49.594;10.958;2022-09-09T19:30:48;2.97;;;1.00;;
9264;SDS011;4669;49.594;10.958;2022-09-09T19:35:55;1.75;;;0.88;;
9264;SDS011;4669;49.594;10.958;2022-09-09T19:41:02;2.65;;;1.10;;
9264;SDS011;4669;49.594;10.958;2022-09-09T19:46:06;1.23;;;0.80;;
9264;SDS011;4669;49.594;10.958;2022-09-09T19:51:11;1.45;;;1.00;;
9264;SDS011;4669;49.594;10.958;2022-09-09T19:56:16;4.75;;;1.10;;
9264;SDS011;4669;49.594;10.958;2022-09-09T20:01:20;2.08;;;0.75;;
9264;SDS011;4669;49.594;10.958;2022-09-09T20:06:24;2.50;;;0.60;;
9264;SDS011;4669;49.594;10.958;2022-09-09T20:11:29;2.17;;;0.63;;
9264;SDS011;4669;49.594;10.958;2022-09-09T20:16:31;2.13;;;0.50;;
9264;SDS011;4669;49.594;10.958;2022-09-09T20:21:34;2.45;;;1.17;;
9264;SDS011;4669;49.594;10.958;2022-09-09T20:26:38;1.95;;;0.90;;
9264;SDS011;4669;49.594;10.958;2022-09-09T20:31:41;4.43;;;0.90;;
9264;SDS011;4669;49.594;10.958;2022-09-09T20:36:45;2.17;;;1.02;;
9264;SDS011;4669;49.594;10.958;2022-09-09T20:41:49;3.10;;;0.73;;
9264;SDS011;4669;49.594;10.958;2022-09-09T20:46:52;3.85;;;1.30;;
9264;SDS011;4669;49.594;10.958;2022-09-09T20:51:59;2.40;;;1.27;;
9264;SDS011;4669;49.594;10.958;2022-09-09T20:57:04;5.70;;;1.10;;
9264;SDS011;4669;49.594;10.958;2022-09-09T21:02:06;2.90;;;0.85;;
9264;SDS011;4669;49.594;10.958;2022-09-09T21:07:10;2.00;;;1.17;;
9264;SDS011;4669;49.594;10.958;2022-09-09T21:12:14;2.03;;;1.20;;
9264;SDS011;4669;49.594;10.958;2022-09-09T21:17:16;1.45;;;1.00;;
9264;SDS011;4669;49.594;10.958;2022-09-09T21:22:18;0.98;;;0.88;;
9264;SDS011;4669;49.594;10.958;2022-09-09T21:27:21;0.93;;;0.80;;
9264;SDS011;4669;49.594;10.958;2022-09-09T21:32:24;2.45;;;1.60;;
9264;SDS011;4669;49.594;10.958;2022-09-09T21:37:26;1.88;;;1.33;;
9264;SDS011;4669;49.594;10.958;2022-09-09T21:42:30;5.18;;;1.27;;
9264;SDS011;4669;49.594;10.958;2022-09-09T21:47:32;1.92;;;0.98;;
9264;SDS011;4669;49.594;10.958;2022-09-09T21:52:34;1.55;;;1.00;;
9264;SDS011;4669;49.594;10.958;2022-09-09T21:57:37;5.03;;;1.50;;
